Terminal Aerodrome Forecast
Issued by NWS

Home | Current Version | Previous Version | Text Only | Print | Product List | Glossary On
Versions: 1 2 3 4 5 6 7 8 9 10 11 12 13 14
000
FTUS44 KEPZ 250500
TAFDMN
TAF
KDMN 250528Z 2506/2606 30006KT P6SM SCT250
     FM251700 24017G27KT P6SM SCT250
     FM260300 25010KT P6SM FEW250=

USA.gov is the U.S. government's official web portal to all federal, state and local government web resources and services.